Ana Sayfa
METAR-TAF:

METAR-TAF

Havaalanları :

Adıyaman Havalimanı

Adıyaman, Türkiye

Enlem: 37-43-54N, Boylam: 38-28-08E, yükseklik: 675 m

Güncel hava durumu gözlemi

Rapor saat 12:50 UTC de 5 saat ve 5 dakika önce yapıldı.
Rüzgar kuzeybatıdan 13 kt, batı/kuzeybatı ve kuzey arasında değişken
Sıcaklık 39°C
Nem 9%
Basınç 1002 hPa
Görüş mesafesi 10 km veya daha fazla
1500 m altında bulut yok ve kümülonimbus yok

METAR: LTCP 181250Z 32013KT 290V350 CAVOK 39/01 Q1002

Saat: 20:55 (17:55 UTC)

Tahmin

Rapor saat 13:40 UTC de 4 saat ve 15 dakika önce yapıldı.
Ayın 18'si saat 15 UTC'den ayın 18'si saat 24 UTC'ye kadar geçerli Tahmin
Rüzgar kuzeydan 15 kt
Görüş mesafesi 10 km veya daha fazla
1500 m altında bulut yok ve kümülonimbus yok

TAF: LTCP 181340Z 1815/1824 35015KT CAVOK

4.000'den fazla havaalanı için hava durumu gözlemleri ve tahminleri (METAR ve TAF raporları).

Kullanılabilir istasyonlar harita üzerinde sarı ve kırmızı noktalarla gösterilir.

İstasyonun adını görmek için fareyi noktanın üzerinde gezdirin.

Sonrasında hava gözlem ve tahminlerini görmek için tıklayın.

Haritayı değiştirmek için: yaklaştırmak için siyah artı işaretli yeşil düğmeye ve uzaklaştırmak için de eksi işaretli düğmeye hızla tıklayın; bitişik haritalar için yeşil okları kullanın.


METAR-TAF: